Orbital elements of SL-3 DEB
| Launched | 23 July 1983 |
| Flight ended | – |
| Launch site | Tyuratam Missile and Space Center, Kazakhstan (Also known as Baikonur Cosmodrome) |
| Owner | Commonwealth of Independent States (former USSR) |
| NORAD ID | 14209 |
| Date fetched |
Epoch osculation |
Inc. [°] |
Ecc. | RA asc node [hr] |
Arg Peri. [°] |
Mean anom [°] |
Mean motion [rev/day] |
Abs. mag |
| Date fetched |
Epoch osculation |
Inc. [°] |
Ecc. | RA asc node [hr] |
Arg Peri. [°] |
Mean anom [°] |
Mean motion [rev/day] |
Abs. mag |
| 2026 May 08 17:57 | 2026 May 05 04:39:52 | 97.2073 | 0.00130 | 7.6767 | 195.2117 | 164.8747 | 15.50249 | – |
| 2026 May 07 17:58 | 2026 May 05 04:39:52 | 97.2073 | 0.00130 | 7.6767 | 195.2117 | 164.8747 | 15.50249 | – |
| 2026 May 06 17:57 | 2026 May 05 04:39:52 | 97.2073 | 0.00130 | 7.6767 | 195.2117 | 164.8747 | 15.50249 | – |
| 2026 May 05 17:57 | 2026 May 05 04:39:52 | 97.2073 | 0.00130 | 7.6767 | 195.2117 | 164.8747 | 15.50249 | – |
| 2026 May 04 17:57 | 2026 Apr 30 11:34:13 | 97.2065 | 0.00123 | 7.3625 | 213.7490 | 164.8747 | 15.50249 | – |
| 2026 May 03 17:57 | 2026 Apr 30 11:34:13 | 97.2065 | 0.00123 | 7.3625 | 213.7490 | 164.8747 | 15.50249 | – |
| 2026 May 02 17:57 | 2026 Apr 30 11:34:13 | 97.2065 | 0.00123 | 7.3625 | 213.7490 | 164.8747 | 15.50249 | – |
| 2026 May 01 17:56 | 2026 Apr 30 11:34:13 | 97.2065 | 0.00123 | 7.3625 | 213.7490 | 164.8747 | 15.50249 | – |
| 2026 Apr 30 17:56 | 2026 Apr 30 11:34:13 | 97.2065 | 0.00123 | 7.3625 | 213.7490 | 164.8747 | 15.50249 | – |
| 2026 Apr 29 17:57 | 2026 Apr 24 11:28:35 | 97.2070 | 0.00116 | 6.9622 | 238.7146 | 164.8747 | 15.50249 | – |
| 2026 Apr 28 17:56 | 2026 Apr 24 11:28:35 | 97.2070 | 0.00116 | 6.9622 | 238.7146 | 164.8747 | 15.50249 | – |
| 2026 Apr 27 17:58 | 2026 Apr 24 11:28:35 | 97.2070 | 0.00116 | 6.9622 | 238.7146 | 164.8747 | 15.50249 | – |
| 2026 Apr 26 17:58 | 2026 Apr 24 11:28:35 | 97.2070 | 0.00116 | 6.9622 | 238.7146 | 164.8747 | 15.50249 | – |
| 2026 Apr 25 17:58 | 2026 Apr 24 11:28:35 | 97.2070 | 0.00116 | 6.9622 | 238.7146 | 164.8747 | 15.50249 | – |
| 2026 Apr 24 17:59 | 2026 Apr 24 11:28:35 | 97.2070 | 0.00116 | 6.9622 | 238.7146 | 164.8747 | 15.50249 | – |
| 2026 Apr 23 17:57 | 2026 Apr 19 05:57:47 | 97.2064 | 0.00112 | 6.6137 | 261.0421 | 164.8747 | 15.50249 | – |
| 2026 Apr 22 17:57 | 2026 Apr 19 05:57:47 | 97.2064 | 0.00112 | 6.6137 | 261.0421 | 164.8747 | 15.50249 | – |
| 2026 Apr 21 17:57 | 2026 Apr 19 05:57:47 | 97.2064 | 0.00112 | 6.6137 | 261.0421 | 164.8747 | 15.50249 | – |
| 2026 Apr 20 17:57 | 2026 Apr 19 05:57:47 | 97.2064 | 0.00112 | 6.6137 | 261.0421 | 164.8747 | 15.50249 | – |
| 2026 Apr 19 17:58 | 2026 Apr 19 05:57:47 | 97.2064 | 0.00112 | 6.6137 | 261.0421 | 164.8747 | 15.50249 | – |
| 2026 Apr 18 17:56 | 2026 Apr 13 05:50:38 | 97.2054 | 0.00111 | 6.2135 | 287.4125 | 164.8747 | 15.50249 | – |
| 2026 Apr 16 17:57 | 2026 Apr 13 05:50:38 | 97.2054 | 0.00111 | 6.2135 | 287.4125 | 164.8747 | 15.50249 | – |
| 2026 Apr 14 17:57 | 2026 Apr 13 05:50:38 | 97.2054 | 0.00111 | 6.2135 | 287.4125 | 164.8747 | 15.50249 | – |
| 2026 Apr 13 17:57 | 2026 Apr 13 05:50:38 | 97.2054 | 0.00111 | 6.2135 | 287.4125 | 164.8747 | 15.50249 | – |
| 2026 Apr 12 17:57 | 2026 Apr 08 11:09:39 | 97.2061 | 0.00114 | 5.8952 | 308.1541 | 164.8747 | 15.50249 | – |
| 2026 Apr 11 17:57 | 2026 Apr 08 11:09:39 | 97.2061 | 0.00114 | 5.8952 | 308.1541 | 164.8747 | 15.50249 | – |